sensor_id;sensor_type;location;lat;lon;timestamp;temperature;humidity
4356;DHT22;64374;51.482;7.408;2023-10-13T00:01:54;18.70;99.90
4356;DHT22;64374;51.482;7.408;2023-10-13T00:04:45;18.20;99.90
4356;DHT22;64374;51.482;7.408;2023-10-13T00:07:32;18.30;99.90
4356;DHT22;64374;51.482;7.408;2023-10-13T00:10:21;18.40;99.90
4356;DHT22;64374;51.482;7.408;2023-10-13T00:13:10;18.30;99.90
4356;DHT22;64374;51.482;7.408;2023-10-13T00:16:01;18.10;99.90
4356;DHT22;64374;51.482;7.408;2023-10-13T00:18:50;18.20;99.90
4356;DHT22;64374;51.482;7.408;2023-10-13T00:21:48;18.20;99.90
4356;DHT22;64374;51.482;7.408;2023-10-13T00:24:38;18.30;99.90
4356;DHT22;64374;51.482;7.408;2023-10-13T00:27:29;18.20;99.90
4356;DHT22;64374;51.482;7.408;2023-10-13T00:30:18;18.60;99.90
4356;DHT22;64374;51.482;7.408;2023-10-13T00:33:08;18.90;99.90
4356;DHT22;64374;51.482;7.408;2023-10-13T00:35:55;18.70;99.90
4356;DHT22;64374;51.482;7.408;2023-10-13T00:38:48;19.10;99.90
4356;DHT22;64374;51.482;7.408;2023-10-13T00:41:37;19.00;99.90
4356;DHT22;64374;51.482;7.408;2023-10-13T00:44:36;18.30;99.90
4356;DHT22;64374;51.482;7.408;2023-10-13T00:47:27;18.60;99.90
4356;DHT22;64374;51.482;7.408;2023-10-13T00:50:35;18.90;99.90
4356;DHT22;64374;51.482;7.408;2023-10-13T00:53:24;18.90;99.90
4356;DHT22;64374;51.482;7.408;2023-10-13T00:56:17;18.50;99.90
4356;DHT22;64374;51.482;7.408;2023-10-13T00:59:09;18.50;99.90
4356;DHT22;64374;51.482;7.408;2023-10-13T01:01:59;18.10;99.90
4356;DHT22;64374;51.482;7.408;2023-10-13T01:05:07;18.30;99.90
4356;DHT22;64374;51.482;7.408;2023-10-13T01:07:56;18.20;99.90
4356;DHT22;64374;51.482;7.408;2023-10-13T01:10:46;18.10;99.90
4356;DHT22;64374;51.482;7.408;2023-10-13T01:13:36;18.40;99.90
4356;DHT22;64374;51.482;7.408;2023-10-13T01:16:22;18.30;99.90
4356;DHT22;64374;51.482;7.408;2023-10-13T01:19:13;18.70;99.90
4356;DHT22;64374;51.482;7.408;2023-10-13T01:22:06;19.00;99.90
4356;DHT22;64374;51.482;7.408;2023-10-13T01:24:56;18.70;99.90
4356;DHT22;64374;51.482;7.408;2023-10-13T01:27:52;18.60;99.90
4356;DHT22;64374;51.482;7.408;2023-10-13T01:30:38;18.80;99.90
4356;DHT22;64374;51.482;7.408;2023-10-13T01:33:27;19.10;99.90
4356;DHT22;64374;51.482;7.408;2023-10-13T01:36:17;19.00;99.90
4356;DHT22;64374;51.482;7.408;2023-10-13T01:39:04;18.90;99.90
4356;DHT22;64374;51.482;7.408;2023-10-13T01:41:53;19.10;99.90
4356;DHT22;64374;51.482;7.408;2023-10-13T01:44:42;18.80;99.90
4356;DHT22;64374;51.482;7.408;2023-10-13T01:47:29;18.60;99.90
4356;DHT22;64374;51.482;7.408;2023-10-13T01:50:14;19.00;99.90
4356;DHT22;64374;51.482;7.408;2023-10-13T01:52:47;18.70;99.90
4356;DHT22;64374;51.482;7.408;2023-10-13T01:55:15;18.90;99.90
4356;DHT22;64374;51.482;7.408;2023-10-13T01:57:45;19.00;99.90
4356;DHT22;64374;51.482;7.408;2023-10-13T02:00:18;18.90;99.90
4356;DHT22;64374;51.482;7.408;2023-10-13T02:02:46;19.00;99.90
4356;DHT22;64374;51.482;7.408;2023-10-13T02:05:17;18.90;99.90
4356;DHT22;64374;51.482;7.408;2023-10-13T02:07:46;18.30;99.90
4356;DHT22;64374;51.482;7.408;2023-10-13T02:10:13;18.60;99.90
4356;DHT22;64374;51.482;7.408;2023-10-13T02:12:41;18.80;99.90
4356;DHT22;64374;51.482;7.408;2023-10-13T02:15:24;19.00;99.90
4356;DHT22;64374;51.482;7.408;2023-10-13T02:17:53;18.40;99.90
4356;DHT22;64374;51.482;7.408;2023-10-13T02:20:22;18.80;99.90
4356;DHT22;64374;51.482;7.408;2023-10-13T02:22:54;18.80;99.90
4356;DHT22;64374;51.482;7.408;2023-10-13T02:25:21;18.70;99.90
4356;DHT22;64374;51.482;7.408;2023-10-13T02:28:04;18.60;99.90
4356;DHT22;64374;51.482;7.408;2023-10-13T02:30:42;18.80;99.90
4356;DHT22;64374;51.482;7.408;2023-10-13T02:33:13;18.80;99.90
4356;DHT22;64374;51.482;7.408;2023-10-13T02:35:40;19.30;99.90
4356;DHT22;64374;51.482;7.408;2023-10-13T02:38:20;19.00;99.90
4356;DHT22;64374;51.482;7.408;2023-10-13T02:40:54;18.80;99.90
4356;DHT22;64374;51.482;7.408;2023-10-13T02:43:42;19.20;99.90
4356;DHT22;64374;51.482;7.408;2023-10-13T02:46:30;19.00;99.90
4356;DHT22;64374;51.482;7.408;2023-10-13T02:49:21;19.00;99.90
4356;DHT22;64374;51.482;7.408;2023-10-13T02:52:10;19.50;99.90
4356;DHT22;64374;51.482;7.408;2023-10-13T02:54:58;18.80;99.90
4356;DHT22;64374;51.482;7.408;2023-10-13T02:57:44;18.90;99.90
4356;DHT22;64374;51.482;7.408;2023-10-13T03:00:31;19.10;99.90
4356;DHT22;64374;51.482;7.408;2023-10-13T03:03:23;19.20;99.90
4356;DHT22;64374;51.482;7.408;2023-10-13T03:06:15;18.80;99.90
4356;DHT22;64374;51.482;7.408;2023-10-13T03:09:08;18.80;99.90
4356;DHT22;64374;51.482;7.408;2023-10-13T03:12:04;18.90;99.90
4356;DHT22;64374;51.482;7.408;2023-10-13T03:14:50;19.20;99.90
4356;DHT22;64374;51.482;7.408;2023-10-13T03:17:41;19.00;99.90
4356;DHT22;64374;51.482;7.408;2023-10-13T03:20:31;18.90;99.90
4356;DHT22;64374;51.482;7.408;2023-10-13T03:23:17;19.10;99.90
4356;DHT22;64374;51.482;7.408;2023-10-13T03:26:09;19.30;99.90
4356;DHT22;64374;51.482;7.408;2023-10-13T03:28:56;19.20;99.90
4356;DHT22;64374;51.482;7.408;2023-10-13T03:31:44;19.40;99.90
4356;DHT22;64374;51.482;7.408;2023-10-13T03:34:32;19.10;99.90
4356;DHT22;64374;51.482;7.408;2023-10-13T03:37:21;19.10;99.90
4356;DHT22;64374;51.482;7.408;2023-10-13T03:40:23;19.20;99.90
4356;DHT22;64374;51.482;7.408;2023-10-13T03:43:23;19.50;99.90
4356;DHT22;64374;51.482;7.408;2023-10-13T03:45:52;19.60;99.90
4356;DHT22;64374;51.482;7.408;2023-10-13T03:48:27;19.70;99.90
4356;DHT22;64374;51.482;7.408;2023-10-13T03:51:22;19.70;99.90
4356;DHT22;64374;51.482;7.408;2023-10-13T03:53:59;19.10;99.90
4356;DHT22;64374;51.482;7.408;2023-10-13T03:56:35;19.20;99.90
4356;DHT22;64374;51.482;7.408;2023-10-13T03:59:11;18.70;99.90
4356;DHT22;64374;51.482;7.408;2023-10-13T04:01:47;19.30;99.90
4356;DHT22;64374;51.482;7.408;2023-10-13T04:04:27;19.30;99.90
4356;DHT22;64374;51.482;7.408;2023-10-13T04:07:05;19.40;99.90
4356;DHT22;64374;51.482;7.408;2023-10-13T04:09:53;19.40;99.90
4356;DHT22;64374;51.482;7.408;2023-10-13T04:12:54;19.50;99.90
4356;DHT22;64374;51.482;7.408;2023-10-13T04:15:42;19.80;99.90
4356;DHT22;64374;51.482;7.408;2023-10-13T04:18:31;20.00;99.90
4356;DHT22;64374;51.482;7.408;2023-10-13T04:21:16;19.10;99.90
4356;DHT22;64374;51.482;7.408;2023-10-13T04:24:20;18.70;99.90
4356;DHT22;64374;51.482;7.408;2023-10-13T04:27:09;19.20;99.90
4356;DHT22;64374;51.482;7.408;2023-10-13T04:30:15;18.80;99.90
4356;DHT22;64374;51.482;7.408;2023-10-13T04:33:10;18.60;99.90
4356;DHT22;64374;51.482;7.408;2023-10-13T04:36:21;18.70;99.90
4356;DHT22;64374;51.482;7.408;2023-10-13T04:39:22;18.90;99.90
4356;DHT22;64374;51.482;7.408;2023-10-13T04:42:24;18.00;99.90
4356;DHT22;64374;51.482;7.408;2023-10-13T04:45:25;18.40;99.90
4356;DHT22;64374;51.482;7.408;2023-10-13T04:48:33;18.20;99.90
4356;DHT22;64374;51.482;7.408;2023-10-13T04:51:27;18.10;99.90
4356;DHT22;64374;51.482;7.408;2023-10-13T04:54:33;18.20;99.90
4356;DHT22;64374;51.482;7.408;2023-10-13T04:57:32;18.90;99.90
4356;DHT22;64374;51.482;7.408;2023-10-13T05:00:19;18.40;99.90
4356;DHT22;64374;51.482;7.408;2023-10-13T05:03:23;18.40;99.90
4356;DHT22;64374;51.482;7.408;2023-10-13T05:06:54;18.10;99.90
4356;DHT22;64374;51.482;7.408;2023-10-13T05:09:58;18.50;99.90
4356;DHT22;64374;51.482;7.408;2023-10-13T05:13:04;18.70;99.90
4356;DHT22;64374;51.482;7.408;2023-10-13T05:16:08;18.60;99.90
4356;DHT22;64374;51.482;7.408;2023-10-13T05:19:12;18.40;99.90
4356;DHT22;64374;51.482;7.408;2023-10-13T05:22:16;18.40;99.90
4356;DHT22;64374;51.482;7.408;2023-10-13T05:25:20;18.30;99.90
4356;DHT22;64374;51.482;7.408;2023-10-13T05:28:25;18.40;99.90
4356;DHT22;64374;51.482;7.408;2023-10-13T05:31:32;18.30;99.90
4356;DHT22;64374;51.482;7.408;2023-10-13T05:34:37;18.70;99.90
4356;DHT22;64374;51.482;7.408;2023-10-13T05:37:42;18.40;99.90
4356;DHT22;64374;51.482;7.408;2023-10-13T05:40:51;18.50;99.90
4356;DHT22;64374;51.482;7.408;2023-10-13T05:44:00;18.60;99.90
4356;DHT22;64374;51.482;7.408;2023-10-13T05:47:06;18.50;99.90
4356;DHT22;64374;51.482;7.408;2023-10-13T05:50:11;18.50;99.90
4356;DHT22;64374;51.482;7.408;2023-10-13T05:53:14;18.70;99.90
4356;DHT22;64374;51.482;7.408;2023-10-13T05:56:21;18.70;99.90
4356;DHT22;64374;51.482;7.408;2023-10-13T05:59:29;18.90;99.90
4356;DHT22;64374;51.482;7.408;2023-10-13T06:02:33;18.30;99.90
4356;DHT22;64374;51.482;7.408;2023-10-13T06:05:38;18.30;99.90
4356;DHT22;64374;51.482;7.408;2023-10-13T06:08:42;18.20;99.90
4356;DHT22;64374;51.482;7.408;2023-10-13T06:11:46;18.10;99.90
4356;DHT22;64374;51.482;7.408;2023-10-13T06:14:54;18.10;99.90
4356;DHT22;64374;51.482;7.408;2023-10-13T06:17:58;18.00;99.90
4356;DHT22;64374;51.482;7.408;2023-10-13T06:21:02;17.90;99.90
4356;DHT22;64374;51.482;7.408;2023-10-13T06:24:07;18.00;99.90
4356;DHT22;64374;51.482;7.408;2023-10-13T06:27:26;18.30;99.90
4356;DHT22;64374;51.482;7.408;2023-10-13T06:30:31;18.10;99.90
4356;DHT22;64374;51.482;7.408;2023-10-13T06:33:18;18.30;99.90
4356;DHT22;64374;51.482;7.408;2023-10-13T06:36:07;18.10;99.90
4356;DHT22;64374;51.482;7.408;2023-10-13T06:38:54;18.00;99.90
4356;DHT22;64374;51.482;7.408;2023-10-13T06:42:02;18.10;99.90
4356;DHT22;64374;51.482;7.408;2023-10-13T06:44:51;18.20;99.90
4356;DHT22;64374;51.482;7.408;2023-10-13T06:47:41;18.30;99.90
4356;DHT22;64374;51.482;7.408;2023-10-13T06:50:30;18.50;99.90
4356;DHT22;64374;51.482;7.408;2023-10-13T06:53:24;18.10;99.90
4356;DHT22;64374;51.482;7.408;2023-10-13T06:56:13;18.20;99.90
4356;DHT22;64374;51.482;7.408;2023-10-13T06:59:15;18.20;99.90
4356;DHT22;64374;51.482;7.408;2023-10-13T07:02:02;18.50;99.90
4356;DHT22;64374;51.482;7.408;2023-10-13T07:05:13;18.60;99.90
4356;DHT22;64374;51.482;7.408;2023-10-13T07:08:00;18.60;99.90
4356;DHT22;64374;51.482;7.408;2023-10-13T07:10:50;18.30;99.90
4356;DHT22;64374;51.482;7.408;2023-10-13T07:13:48;18.60;99.90
4356;DHT22;64374;51.482;7.408;2023-10-13T07:16:43;18.90;99.90
4356;DHT22;64374;51.482;7.408;2023-10-13T07:19:32;18.60;99.90
4356;DHT22;64374;51.482;7.408;2023-10-13T07:22:38;18.70;99.90
4356;DHT22;64374;51.482;7.408;2023-10-13T07:25:26;18.30;99.90
4356;DHT22;64374;51.482;7.408;2023-10-13T07:28:18;18.60;99.90
4356;DHT22;64374;51.482;7.408;2023-10-13T07:31:05;19.10;99.90
4356;DHT22;64374;51.482;7.408;2023-10-13T07:34:10;19.20;99.90
4356;DHT22;64374;51.482;7.408;2023-10-13T07:37:10;18.90;99.90
4356;DHT22;64374;51.482;7.408;2023-10-13T07:39:59;18.90;99.90
4356;DHT22;64374;51.482;7.408;2023-10-13T07:42:46;18.90;99.90
4356;DHT22;64374;51.482;7.408;2023-10-13T07:45:39;18.60;99.90
4356;DHT22;64374;51.482;7.408;2023-10-13T07:48:30;18.90;99.90
4356;DHT22;64374;51.482;7.408;2023-10-13T07:51:19;19.00;99.90
4356;DHT22;64374;51.482;7.408;2023-10-13T07:54:08;19.10;99.90
4356;DHT22;64374;51.482;7.408;2023-10-13T07:56:57;19.30;99.90
4356;DHT22;64374;51.482;7.408;2023-10-13T07:59:45;19.40;99.90
4356;DHT22;64374;51.482;7.408;2023-10-13T08:02:38;19.80;99.90
4356;DHT22;64374;51.482;7.408;2023-10-13T08:05:35;19.00;99.90
4356;DHT22;64374;51.482;7.408;2023-10-13T08:08:41;19.10;99.90
4356;DHT22;64374;51.482;7.408;2023-10-13T08:11:36;18.90;99.90
4356;DHT22;64374;51.482;7.408;2023-10-13T08:14:25;19.00;99.90
4356;DHT22;64374;51.482;7.408;2023-10-13T08:17:24;19.40;99.90
4356;DHT22;64374;51.482;7.408;2023-10-13T08:20:16;19.70;99.90
4356;DHT22;64374;51.482;7.408;2023-10-13T08:23:04;19.40;99.90
4356;DHT22;64374;51.482;7.408;2023-10-13T08:25:58;19.10;99.90
4356;DHT22;64374;51.482;7.408;2023-10-13T08:29:14;18.80;99.90
4356;DHT22;64374;51.482;7.408;2023-10-13T08:32:20;19.00;99.90
4356;DHT22;64374;51.482;7.408;2023-10-13T08:35:22;18.90;99.90
4356;DHT22;64374;51.482;7.408;2023-10-13T08:38:11;19.00;99.90
4356;DHT22;64374;51.482;7.408;2023-10-13T08:41:14;19.30;99.90
4356;DHT22;64374;51.482;7.408;2023-10-13T08:44:16;19.40;99.90
4356;DHT22;64374;51.482;7.408;2023-10-13T08:47:32;19.40;99.90
4356;DHT22;64374;51.482;7.408;2023-10-13T08:50:22;19.40;99.90
4356;DHT22;64374;51.482;7.408;2023-10-13T08:53:33;19.50;99.90
4356;DHT22;64374;51.482;7.408;2023-10-13T08:56:30;19.60;99.90
4356;DHT22;64374;51.482;7.408;2023-10-13T08:59:20;19.90;99.90
4356;DHT22;64374;51.482;7.408;2023-10-13T09:02:14;19.70;99.90
4356;DHT22;64374;51.482;7.408;2023-10-13T09:05:06;20.20;99.90
4356;DHT22;64374;51.482;7.408;2023-10-13T09:08:24;19.90;99.90
4356;DHT22;64374;51.482;7.408;2023-10-13T09:11:03;20.00;99.90
4356;DHT22;64374;51.482;7.408;2023-10-13T09:13:39;20.00;99.90
4356;DHT22;64374;51.482;7.408;2023-10-13T09:16:12;20.20;99.90
4356;DHT22;64374;51.482;7.408;2023-10-13T09:19:06;20.50;99.90
4356;DHT22;64374;51.482;7.408;2023-10-13T09:21:40;20.20;99.90
4356;DHT22;64374;51.482;7.408;2023-10-13T09:24:21;20.10;99.90
4356;DHT22;64374;51.482;7.408;2023-10-13T09:26:58;20.50;99.90
4356;DHT22;64374;51.482;7.408;2023-10-13T09:29:28;20.50;99.90
4356;DHT22;64374;51.482;7.408;2023-10-13T09:32:01;20.60;99.90
4356;DHT22;64374;51.482;7.408;2023-10-13T09:34:30;20.50;99.90
4356;DHT22;64374;51.482;7.408;2023-10-13T09:37:05;20.80;99.90
4356;DHT22;64374;51.482;7.408;2023-10-13T09:39:42;21.40;99.90
4356;DHT22;64374;51.482;7.408;2023-10-13T09:42:12;20.90;99.90
4356;DHT22;64374;51.482;7.408;2023-10-13T09:44:45;21.00;99.90
4356;DHT22;64374;51.482;7.408;2023-10-13T09:47:21;20.90;99.90
4356;DHT22;64374;51.482;7.408;2023-10-13T09:50:17;21.40;99.90
4356;DHT22;64374;51.482;7.408;2023-10-13T09:53:11;21.10;99.90
4356;DHT22;64374;51.482;7.408;2023-10-13T09:56:03;21.70;99.90
4356;DHT22;64374;51.482;7.408;2023-10-13T09:59:00;21.60;99.90
4356;DHT22;64374;51.482;7.408;2023-10-13T10:01:54;21.50;99.90
4356;DHT22;64374;51.482;7.408;2023-10-13T10:04:51;22.00;99.90
4356;DHT22;64374;51.482;7.408;2023-10-13T10:07:38;21.90;99.90
4356;DHT22;64374;51.482;7.408;2023-10-13T10:10:43;21.60;99.90
4356;DHT22;64374;51.482;7.408;2023-10-13T10:13:38;21.60;99.90
4356;DHT22;64374;51.482;7.408;2023-10-13T10:16:37;22.10;99.90
4356;DHT22;64374;51.482;7.408;2023-10-13T10:19:30;22.10;99.90
4356;DHT22;64374;51.482;7.408;2023-10-13T10:22:27;22.20;99.90
4356;DHT22;64374;51.482;7.408;2023-10-13T10:25:16;22.40;99.90
4356;DHT22;64374;51.482;7.408;2023-10-13T10:28:12;22.30;99.90
4356;DHT22;64374;51.482;7.408;2023-10-13T10:31:05;22.40;99.90
4356;DHT22;64374;51.482;7.408;2023-10-13T10:33:54;22.60;99.90
4356;DHT22;64374;51.482;7.408;2023-10-13T10:36:42;22.40;99.90
4356;DHT22;64374;51.482;7.408;2023-10-13T10:39:35;22.30;99.90
4356;DHT22;64374;51.482;7.408;2023-10-13T10:42:32;22.50;99.90
4356;DHT22;64374;51.482;7.408;2023-10-13T10:45:29;22.80;99.90
4356;DHT22;64374;51.482;7.408;2023-10-13T10:48:19;22.20;99.90
4356;DHT22;64374;51.482;7.408;2023-10-13T10:51:20;22.40;99.90
4356;DHT22;64374;51.482;7.408;2023-10-13T10:54:18;22.30;99.90
4356;DHT22;64374;51.482;7.408;2023-10-13T10:57:08;22.40;99.90
4356;DHT22;64374;51.482;7.408;2023-10-13T10:59:39;22.70;99.90
4356;DHT22;64374;51.482;7.408;2023-10-13T11:02:09;22.30;99.90
4356;DHT22;64374;51.482;7.408;2023-10-13T11:04:42;22.10;99.90
4356;DHT22;64374;51.482;7.408;2023-10-13T11:07:22;22.20;99.90
4356;DHT22;64374;51.482;7.408;2023-10-13T11:09:51;22.10;99.90
4356;DHT22;64374;51.482;7.408;2023-10-13T11:12:32;22.00;99.90
4356;DHT22;64374;51.482;7.408;2023-10-13T11:15:03;22.20;99.90
4356;DHT22;64374;51.482;7.408;2023-10-13T11:17:48;22.60;99.90
4356;DHT22;64374;51.482;7.408;2023-10-13T11:20:19;22.70;99.90
4356;DHT22;64374;51.482;7.408;2023-10-13T11:22:55;22.60;99.90
4356;DHT22;64374;51.482;7.408;2023-10-13T11:25:24;22.60;99.90
4356;DHT22;64374;51.482;7.408;2023-10-13T11:27:58;23.30;99.90
4356;DHT22;64374;51.482;7.408;2023-10-13T11:30:27;23.20;99.90
4356;DHT22;64374;51.482;7.408;2023-10-13T11:33:28;22.80;99.90
4356;DHT22;64374;51.482;7.408;2023-10-13T11:36:15;23.30;99.90
4356;DHT22;64374;51.482;7.408;2023-10-13T11:39:03;23.40;99.90
4356;DHT22;64374;51.482;7.408;2023-10-13T11:41:55;23.30;99.90
4356;DHT22;64374;51.482;7.408;2023-10-13T11:44:41;23.10;99.90
4356;DHT22;64374;51.482;7.408;2023-10-13T11:47:31;23.10;99.90
4356;DHT22;64374;51.482;7.408;2023-10-13T11:50:35;22.40;99.90
4356;DHT22;64374;51.482;7.408;2023-10-13T11:53:22;22.80;99.90
4356;DHT22;64374;51.482;7.408;2023-10-13T11:56:13;22.90;99.90
4356;DHT22;64374;51.482;7.408;2023-10-13T11:58:59;22.90;99.90
4356;DHT22;64374;51.482;7.408;2023-10-13T12:01:51;23.50;99.90
4356;DHT22;64374;51.482;7.408;2023-10-13T12:04:59;23.80;99.90
4356;DHT22;64374;51.482;7.408;2023-10-13T12:07:58;23.90;99.90
4356;DHT22;64374;51.482;7.408;2023-10-13T12:10:49;24.20;99.90
4356;DHT22;64374;51.482;7.408;2023-10-13T12:13:45;24.30;99.90
4356;DHT22;64374;51.482;7.408;2023-10-13T12:16:34;24.50;99.90
4356;DHT22;64374;51.482;7.408;2023-10-13T12:19:21;24.60;99.90
4356;DHT22;64374;51.482;7.408;2023-10-13T12:22:09;24.80;99.90
4356;DHT22;64374;51.482;7.408;2023-10-13T12:25:14;24.60;99.90
4356;DHT22;64374;51.482;7.408;2023-10-13T12:28:15;25.30;99.90
4356;DHT22;64374;51.482;7.408;2023-10-13T12:31:06;25.60;99.90
4356;DHT22;64374;51.482;7.408;2023-10-13T12:33:57;25.40;99.90
4356;DHT22;64374;51.482;7.408;2023-10-13T12:36:51;25.00;99.90
4356;DHT22;64374;51.482;7.408;2023-10-13T12:39:51;25.30;99.90
4356;DHT22;64374;51.482;7.408;2023-10-13T12:42:59;25.50;99.90
4356;DHT22;64374;51.482;7.408;2023-10-13T12:46:04;25.10;99.90
4356;DHT22;64374;51.482;7.408;2023-10-13T12:49:18;25.60;99.90
4356;DHT22;64374;51.482;7.408;2023-10-13T12:52:28;25.00;99.90
4356;DHT22;64374;51.482;7.408;2023-10-13T12:55:17;25.00;99.90
4356;DHT22;64374;51.482;7.408;2023-10-13T12:58:11;25.30;99.90
4356;DHT22;64374;51.482;7.408;2023-10-13T13:00:59;25.10;99.90
4356;DHT22;64374;51.482;7.408;2023-10-13T13:03:54;24.20;99.90
4356;DHT22;64374;51.482;7.408;2023-10-13T13:06:43;24.20;99.90
4356;DHT22;64374;51.482;7.408;2023-10-13T13:09:30;24.30;99.90
4356;DHT22;64374;51.482;7.408;2023-10-13T13:12:20;24.20;99.90
4356;DHT22;64374;51.482;7.408;2023-10-13T13:15:13;24.00;99.90
4356;DHT22;64374;51.482;7.408;2023-10-13T13:18:02;23.50;99.90
4356;DHT22;64374;51.482;7.408;2023-10-13T13:20:58;23.80;99.90
4356;DHT22;64374;51.482;7.408;2023-10-13T13:23:45;23.70;99.90
4356;DHT22;64374;51.482;7.408;2023-10-13T13:26:32;24.00;99.90
4356;DHT22;64374;51.482;7.408;2023-10-13T13:29:18;23.60;99.90
4356;DHT22;64374;51.482;7.408;2023-10-13T13:32:06;23.90;99.90
4356;DHT22;64374;51.482;7.408;2023-10-13T13:35:03;23.80;99.90
4356;DHT22;64374;51.482;7.408;2023-10-13T13:37:51;23.50;99.90
4356;DHT22;64374;51.482;7.408;2023-10-13T13:40:39;23.40;99.90
4356;DHT22;64374;51.482;7.408;2023-10-13T13:43:29;23.70;99.90
4356;DHT22;64374;51.482;7.408;2023-10-13T13:46:36;23.80;99.90
4356;DHT22;64374;51.482;7.408;2023-10-13T13:49:28;23.80;99.90
4356;DHT22;64374;51.482;7.408;2023-10-13T13:52:25;24.00;99.90
4356;DHT22;64374;51.482;7.408;2023-10-13T13:55:20;24.30;99.90
4356;DHT22;64374;51.482;7.408;2023-10-13T13:58:07;23.80;99.90
4356;DHT22;64374;51.482;7.408;2023-10-13T14:00:59;23.80;99.90
4356;DHT22;64374;51.482;7.408;2023-10-13T14:03:48;23.60;99.90
4356;DHT22;64374;51.482;7.408;2023-10-13T14:06:37;23.50;99.90
4356;DHT22;64374;51.482;7.408;2023-10-13T14:09:26;23.30;99.90
4356;DHT22;64374;51.482;7.408;2023-10-13T14:12:21;23.50;99.90
4356;DHT22;64374;51.482;7.408;2023-10-13T14:15:27;23.20;99.90
4356;DHT22;64374;51.482;7.408;2023-10-13T14:18:14;23.60;99.90
4356;DHT22;64374;51.482;7.408;2023-10-13T14:21:03;23.60;99.90
4356;DHT22;64374;51.482;7.408;2023-10-13T14:23:52;23.40;99.90
4356;DHT22;64374;51.482;7.408;2023-10-13T14:26:21;23.30;99.90
4356;DHT22;64374;51.482;7.408;2023-10-13T14:28:52;23.40;99.90
4356;DHT22;64374;51.482;7.408;2023-10-13T14:31:29;23.60;99.90
4356;DHT22;64374;51.482;7.408;2023-10-13T14:34:01;23.60;99.90
4356;DHT22;64374;51.482;7.408;2023-10-13T14:36:29;23.70;99.90
4356;DHT22;64374;51.482;7.408;2023-10-13T14:39:05;23.60;99.90
4356;DHT22;64374;51.482;7.408;2023-10-13T14:41:36;23.60;99.90
4356;DHT22;64374;51.482;7.408;2023-10-13T14:44:04;23.00;99.90
4356;DHT22;64374;51.482;7.408;2023-10-13T14:46:34;23.40;99.90
4356;DHT22;64374;51.482;7.408;2023-10-13T14:49:06;23.20;99.90
4356;DHT22;64374;51.482;7.408;2023-10-13T14:51:34;23.40;99.90
4356;DHT22;64374;51.482;7.408;2023-10-13T14:54:15;23.10;99.90
4356;DHT22;64374;51.482;7.408;2023-10-13T14:56:43;22.90;99.90
4356;DHT22;64374;51.482;7.408;2023-10-13T14:59:32;23.10;99.90
4356;DHT22;64374;51.482;7.408;2023-10-13T15:02:24;23.00;99.90
4356;DHT22;64374;51.482;7.408;2023-10-13T15:05:11;22.90;99.90
4356;DHT22;64374;51.482;7.408;2023-10-13T15:08:02;23.10;99.90
4356;DHT22;64374;51.482;7.408;2023-10-13T15:10:53;22.90;99.90
4356;DHT22;64374;51.482;7.408;2023-10-13T15:13:40;22.80;99.90
4356;DHT22;64374;51.482;7.408;2023-10-13T15:16:27;22.70;99.90
4356;DHT22;64374;51.482;7.408;2023-10-13T15:19:23;22.80;99.90
4356;DHT22;64374;51.482;7.408;2023-10-13T15:22:09;22.80;99.90
4356;DHT22;64374;51.482;7.408;2023-10-13T15:25:02;22.80;99.90
4356;DHT22;64374;51.482;7.408;2023-10-13T15:28:17;22.70;99.90
4356;DHT22;64374;51.482;7.408;2023-10-13T15:31:11;23.00;99.90
4356;DHT22;64374;51.482;7.408;2023-10-13T15:34:12;23.00;99.90
4356;DHT22;64374;51.482;7.408;2023-10-13T15:37:01;22.60;99.90
4356;DHT22;64374;51.482;7.408;2023-10-13T15:39:50;22.70;99.90
4356;DHT22;64374;51.482;7.408;2023-10-13T15:42:37;22.70;99.90
4356;DHT22;64374;51.482;7.408;2023-10-13T15:45:31;22.60;99.90
4356;DHT22;64374;51.482;7.408;2023-10-13T15:48:24;22.70;99.90
4356;DHT22;64374;51.482;7.408;2023-10-13T15:51:12;22.70;99.90
4356;DHT22;64374;51.482;7.408;2023-10-13T15:54:02;22.90;99.90
4356;DHT22;64374;51.482;7.408;2023-10-13T15:56:56;22.70;99.90
4356;DHT22;64374;51.482;7.408;2023-10-13T15:59:44;23.00;99.90
4356;DHT22;64374;51.482;7.408;2023-10-13T16:02:35;22.80;99.90
4356;DHT22;64374;51.482;7.408;2023-10-13T16:05:28;22.70;99.90
4356;DHT22;64374;51.482;7.408;2023-10-13T16:08:20;22.70;99.90
4356;DHT22;64374;51.482;7.408;2023-10-13T16:11:08;22.50;99.90
4356;DHT22;64374;51.482;7.408;2023-10-13T16:13:59;22.40;99.90
4356;DHT22;64374;51.482;7.408;2023-10-13T16:16:46;22.50;99.90
4356;DHT22;64374;51.482;7.408;2023-10-13T16:19:48;22.60;99.90
4356;DHT22;64374;51.482;7.408;2023-10-13T16:22:38;22.80;99.90
4356;DHT22;64374;51.482;7.408;2023-10-13T16:25:27;22.50;99.90
4356;DHT22;64374;51.482;7.408;2023-10-13T16:28:13;22.30;99.90
4356;DHT22;64374;51.482;7.408;2023-10-13T16:31:03;22.60;99.90
4356;DHT22;64374;51.482;7.408;2023-10-13T16:33:50;22.30;99.90
4356;DHT22;64374;51.482;7.408;2023-10-13T16:36:42;22.40;99.90
4356;DHT22;64374;51.482;7.408;2023-10-13T16:39:30;22.40;99.90
4356;DHT22;64374;51.482;7.408;2023-10-13T16:42:20;22.30;99.90
4356;DHT22;64374;51.482;7.408;2023-10-13T16:45:12;22.50;99.90
4356;DHT22;64374;51.482;7.408;2023-10-13T16:48:09;22.40;99.90
4356;DHT22;64374;51.482;7.408;2023-10-13T16:50:58;22.40;99.90
4356;DHT22;64374;51.482;7.408;2023-10-13T16:53:51;22.30;99.90
4356;DHT22;64374;51.482;7.408;2023-10-13T16:56:40;22.10;99.90
4356;DHT22;64374;51.482;7.408;2023-10-13T16:59:26;22.10;99.90
4356;DHT22;64374;51.482;7.408;2023-10-13T17:02:13;22.40;99.90
4356;DHT22;64374;51.482;7.408;2023-10-13T17:05:04;22.00;99.90
4356;DHT22;64374;51.482;7.408;2023-10-13T17:07:54;22.30;99.90
4356;DHT22;64374;51.482;7.408;2023-10-13T17:10:49;22.10;99.90
4356;DHT22;64374;51.482;7.408;2023-10-13T17:13:36;21.90;99.90
4356;DHT22;64374;51.482;7.408;2023-10-13T17:16:23;22.10;99.90
4356;DHT22;64374;51.482;7.408;2023-10-13T17:19:10;21.90;99.90
4356;DHT22;64374;51.482;7.408;2023-10-13T17:21:57;22.20;99.90
4356;DHT22;64374;51.482;7.408;2023-10-13T17:24:46;22.30;99.90
4356;DHT22;64374;51.482;7.408;2023-10-13T17:27:40;22.00;99.90
4356;DHT22;64374;51.482;7.408;2023-10-13T17:30:27;22.10;99.90
4356;DHT22;64374;51.482;7.408;2023-10-13T17:33:13;22.30;99.90
4356;DHT22;64374;51.482;7.408;2023-10-13T17:36:02;22.00;99.90
4356;DHT22;64374;51.482;7.408;2023-10-13T17:38:52;21.70;99.90
4356;DHT22;64374;51.482;7.408;2023-10-13T17:41:38;21.90;99.90
4356;DHT22;64374;51.482;7.408;2023-10-13T17:44:31;21.50;99.90
4356;DHT22;64374;51.482;7.408;2023-10-13T17:47:18;21.40;99.90
4356;DHT22;64374;51.482;7.408;2023-10-13T17:50:09;21.40;99.90
4356;DHT22;64374;51.482;7.408;2023-10-13T17:52:58;21.70;99.90
4356;DHT22;64374;51.482;7.408;2023-10-13T17:55:46;21.30;99.90
4356;DHT22;64374;51.482;7.408;2023-10-13T17:58:33;21.40;99.90
4356;DHT22;64374;51.482;7.408;2023-10-13T18:01:20;21.90;99.90
4356;DHT22;64374;51.482;7.408;2023-10-13T18:04:07;21.60;99.90
4356;DHT22;64374;51.482;7.408;2023-10-13T18:06:59;21.20;99.90
4356;DHT22;64374;51.482;7.408;2023-10-13T18:09:52;21.20;99.90
4356;DHT22;64374;51.482;7.408;2023-10-13T18:12:41;21.30;99.90